Погода Свакопмундна 2 недели

Эронго, Намибия

22 февраля-06 марта
  • 22февраля
    Сегодня
    +14°
    +23°
    Практически безоблачно
    ВремяПогодаТемператураВлажностьДавлениеВетер, м/сВероятность осадков
    02:00Практически безоблачно+17°C91 %755 мм1.4 м/с5 %
    05:00Облачно с прояснениями+16°C94 %755 мм2.9 м/с5 %
    08:00Облачно с прояснениями+15°C92 %755 мм2.1 м/с5 %
    11:00Ясно и безоблачно+20°C83 %756 мм2.5 м/с5 %
    14:00Практически безоблачно+22°C76 %755 мм5.8 м/с5 %
    17:00Ясно и безоблачно+23°C75 %754 мм7.8 м/с5 %
    20:00Ясно и безоблачно+18°C80 %755 мм5.5 м/с5 %
    23:00Небольшая облачность+17°C83 %756 мм1.8 м/с5 %
  • 23февраля
    Пятница
    +15°
    +22°
    Практически безоблачно
    ВремяПогодаТемператураВлажностьДавлениеВетер, м/сВероятность осадков
    02:00Небольшая облачность+16°C90 %755 мм3.6 м/с5 %
    05:00Небольшая облачность+15°C91 %755 мм1.8 м/с5 %
    08:00Небольшая облачность+15°C89 %756 мм0.9 м/с5 %
    11:00Небольшая облачность+19°C80 %756 мм3.2 м/с5 %
    14:00Практически безоблачно+20°C77 %755 мм6.2 м/с4 %
    17:00Ясно и безоблачно+21°C79 %754 мм7.7 м/с5 %
    20:00Ясно и безоблачно+17°C87 %756 мм4.8 м/с4 %
    23:00Ясно и безоблачно+17°C89 %758 мм1.0 м/с5 %
  • 24февраля
    Суббота
    +13°
    +23°
    Ясно и безоблачно
    ВремяПогодаТемператураВлажностьДавлениеВетер, м/сВероятность осадков
    02:00Ясно и безоблачно+16°C92 %758 мм1.1 м/с5 %
    05:00Практически безоблачно+16°C94 %758 мм3.2 м/с2 %
    08:00Облачно с прояснениями+16°C92 %759 мм1.2 м/с9 %
    11:00Облачно с прояснениями+20°C82 %759 мм2.8 м/с4 %
    14:00Ясно и безоблачно+21°C79 %759 мм7.1 м/с3 %
    17:00Ясно и безоблачно+22°C79 %758 мм8.4 м/с4 %
    20:00Ясно и безоблачно+19°C81 %758 мм6.9 м/с5 %
    23:00Ясно и безоблачно+18°C81 %759 мм5.7 м/с5 %
  • 25февраля
    Воскресенье
    +14°
    +21°
    Ясно и безоблачно
    ВремяПогодаТемператураВлажностьДавлениеВетер, м/сВероятность осадков
    02:00Ясно и безоблачно+15°C89 %758 мм4.8 м/с5 %
    05:00Ясно и безоблачно+15°C91 %758 мм2.8 м/с5 %
    08:00Ясно и безоблачно+14°C93 %759 мм0.3 м/с5 %
    11:00Ясно и безоблачно+19°C82 %759 мм3.7 м/с5 %
    14:00Ясно и безоблачно+20°C79 %758 мм4.0 м/с5 %
    17:00Ясно и безоблачно+21°C82 %757 мм3.8 м/с4 %
    20:00Ясно и безоблачно+17°C90 %758 мм2.7 м/с7 %
    23:00Ясно и безоблачно+16°C92 %759 мм0.9 м/с5 %
  • 26февраля
    Понедельник
    +15°
    +21°
    Практически безоблачно
    ВремяПогодаТемператураВлажностьДавлениеВетер, м/сВероятность осадков
    02:00Облачно с прояснениями+15°C94 %758 мм1.1 м/с5 %
    05:00Пасмурно, сплошная облачность+16°C94 %757 мм2.1 м/с7 %
    08:00Облачно с прояснениями+15°C92 %758 мм4.7 м/с12 %
    11:00Ясно и безоблачно+19°C80 %758 мм4.3 м/с5 %
    14:00Практически безоблачно+19°C81 %757 мм3.8 м/с5 %
    17:00Ясно и безоблачно+20°C80 %756 мм5.9 м/с4 %
    20:00Ясно и безоблачно+17°C88 %757 мм4.4 м/с4 %
    23:00Ясно и безоблачно+16°C92 %758 мм1.3 м/с5 %
Мы используем cookies
Соглашаюсь